sensor_id;sensor_type;location;lat;lon;timestamp;temperature;humidity
16327;DHT22;34812;49.846;9.610;2023-03-21T00:00:41;9.20;99.90
16327;DHT22;34812;49.846;9.610;2023-03-21T00:01:42;9.20;99.90
16327;DHT22;34812;49.846;9.610;2023-03-21T00:02:43;9.20;99.90
16327;DHT22;34812;49.846;9.610;2023-03-21T00:03:44;9.20;99.90
16327;DHT22;34812;49.846;9.610;2023-03-21T00:04:50;9.20;99.90
16327;DHT22;34812;49.846;9.610;2023-03-21T00:05:51;9.20;99.90
16327;DHT22;34812;49.846;9.610;2023-03-21T00:06:53;9.20;99.90
16327;DHT22;34812;49.846;9.610;2023-03-21T00:07:54;9.20;99.90
16327;DHT22;34812;49.846;9.610;2023-03-21T00:08:56;9.20;99.90
16327;DHT22;34812;49.846;9.610;2023-03-21T00:09:56;9.20;99.90
16327;DHT22;34812;49.846;9.610;2023-03-21T00:11:00;9.20;99.90
16327;DHT22;34812;49.846;9.610;2023-03-21T00:12:01;9.20;99.90
16327;DHT22;34812;49.846;9.610;2023-03-21T00:13:06;9.20;99.90
16327;DHT22;34812;49.846;9.610;2023-03-21T00:14:07;9.20;99.90
16327;DHT22;34812;49.846;9.610;2023-03-21T00:15:13;9.20;99.90
16327;DHT22;34812;49.846;9.610;2023-03-21T00:16:18;9.20;99.90
16327;DHT22;34812;49.846;9.610;2023-03-21T00:17:20;9.20;99.90
16327;DHT22;34812;49.846;9.610;2023-03-21T00:18:22;9.20;99.90
16327;DHT22;34812;49.846;9.610;2023-03-21T00:19:25;9.20;99.90
16327;DHT22;34812;49.846;9.610;2023-03-21T00:20:30;9.20;99.90
16327;DHT22;34812;49.846;9.610;2023-03-21T00:21:33;9.20;99.90
16327;DHT22;34812;49.846;9.610;2023-03-21T00:22:37;9.10;99.90
16327;DHT22;34812;49.846;9.610;2023-03-21T00:23:39;9.10;99.90
16327;DHT22;34812;49.846;9.610;2023-03-21T00:24:40;9.20;99.90
16327;DHT22;34812;49.846;9.610;2023-03-21T00:25:42;9.20;99.90
16327;DHT22;34812;49.846;9.610;2023-03-21T00:26:43;9.20;99.90
16327;DHT22;34812;49.846;9.610;2023-03-21T00:27:45;9.20;99.90
16327;DHT22;34812;49.846;9.610;2023-03-21T00:28:46;9.20;99.90
16327;DHT22;34812;49.846;9.610;2023-03-21T00:29:48;9.20;99.90
16327;DHT22;34812;49.846;9.610;2023-03-21T00:30:56;9.20;99.90
16327;DHT22;34812;49.846;9.610;2023-03-21T00:31:58;9.10;99.90
16327;DHT22;34812;49.846;9.610;2023-03-21T00:32:59;9.10;99.90
16327;DHT22;34812;49.846;9.610;2023-03-21T00:34:01;9.10;99.90
16327;DHT22;34812;49.846;9.610;2023-03-21T00:35:01;9.10;99.90
16327;DHT22;34812;49.846;9.610;2023-03-21T00:36:06;9.10;99.90
16327;DHT22;34812;49.846;9.610;2023-03-21T00:37:07;9.10;99.90
16327;DHT22;34812;49.846;9.610;2023-03-21T00:38:14;9.10;99.90
16327;DHT22;34812;49.846;9.610;2023-03-21T00:39:14;9.00;99.90
16327;DHT22;34812;49.846;9.610;2023-03-21T00:40:16;9.00;99.90
16327;DHT22;34812;49.846;9.610;2023-03-21T00:41:17;9.00;99.90
16327;DHT22;34812;49.846;9.610;2023-03-21T00:42:19;9.00;99.90
16327;DHT22;34812;49.846;9.610;2023-03-21T00:43:20;9.00;99.90
16327;DHT22;34812;49.846;9.610;2023-03-21T00:44:23;9.00;99.90
16327;DHT22;34812;49.846;9.610;2023-03-21T00:45:25;9.00;99.90
16327;DHT22;34812;49.846;9.610;2023-03-21T00:46:27;9.00;99.90
16327;DHT22;34812;49.846;9.610;2023-03-21T00:47:28;9.00;99.90
16327;DHT22;34812;49.846;9.610;2023-03-21T00:48:30;9.10;99.90
16327;DHT22;34812;49.846;9.610;2023-03-21T00:49:31;9.10;99.90
16327;DHT22;34812;49.846;9.610;2023-03-21T00:50:36;9.10;99.90
16327;DHT22;34812;49.846;9.610;2023-03-21T00:51:38;9.10;99.90
16327;DHT22;34812;49.846;9.610;2023-03-21T00:52:40;9.10;99.90
16327;DHT22;34812;49.846;9.610;2023-03-21T00:53:41;9.10;99.90
16327;DHT22;34812;49.846;9.610;2023-03-21T00:54:43;9.10;99.90
16327;DHT22;34812;49.846;9.610;2023-03-21T00:55:43;9.20;99.90
16327;DHT22;34812;49.846;9.610;2023-03-21T00:56:45;9.20;99.90
16327;DHT22;34812;49.846;9.610;2023-03-21T00:57:47;9.20;99.90
16327;DHT22;34812;49.846;9.610;2023-03-21T00:58:48;9.20;99.90
16327;DHT22;34812;49.846;9.610;2023-03-21T00:59:50;9.20;99.90
16327;DHT22;34812;49.846;9.610;2023-03-21T01:00:51;9.20;99.90
16327;DHT22;34812;49.846;9.610;2023-03-21T01:01:53;9.20;99.90
16327;DHT22;34812;49.846;9.610;2023-03-21T01:02:54;9.20;99.90
16327;DHT22;34812;49.846;9.610;2023-03-21T01:03:58;9.20;99.90
16327;DHT22;34812;49.846;9.610;2023-03-21T01:05:02;9.10;99.90
16327;DHT22;34812;49.846;9.610;2023-03-21T01:06:04;9.10;99.90
16327;DHT22;34812;49.846;9.610;2023-03-21T01:07:07;9.10;99.90
16327;DHT22;34812;49.846;9.610;2023-03-21T01:08:09;9.00;99.90
16327;DHT22;34812;49.846;9.610;2023-03-21T01:09:13;9.00;99.90
16327;DHT22;34812;49.846;9.610;2023-03-21T01:10:15;9.00;99.90
16327;DHT22;34812;49.846;9.610;2023-03-21T01:11:17;9.00;99.90
16327;DHT22;34812;49.846;9.610;2023-03-21T01:12:19;9.00;99.90
16327;DHT22;34812;49.846;9.610;2023-03-21T01:13:21;9.00;99.90
16327;DHT22;34812;49.846;9.610;2023-03-21T01:14:24;9.00;99.90
16327;DHT22;34812;49.846;9.610;2023-03-21T01:15:27;9.00;99.90
16327;DHT22;34812;49.846;9.610;2023-03-21T01:16:28;9.00;99.90
16327;DHT22;34812;49.846;9.610;2023-03-21T01:17:30;9.00;99.90
16327;DHT22;34812;49.846;9.610;2023-03-21T01:18:31;8.90;99.90
16327;DHT22;34812;49.846;9.610;2023-03-21T01:19:33;9.00;99.90
16327;DHT22;34812;49.846;9.610;2023-03-21T01:20:35;8.90;99.90
16327;DHT22;34812;49.846;9.610;2023-03-21T01:21:36;8.90;99.90
16327;DHT22;34812;49.846;9.610;2023-03-21T01:22:39;8.90;99.90
16327;DHT22;34812;49.846;9.610;2023-03-21T01:23:41;8.90;99.90
16327;DHT22;34812;49.846;9.610;2023-03-21T01:24:43;8.80;99.90
16327;DHT22;34812;49.846;9.610;2023-03-21T01:25:46;8.80;99.90
16327;DHT22;34812;49.846;9.610;2023-03-21T01:26:48;8.80;99.90
16327;DHT22;34812;49.846;9.610;2023-03-21T01:27:50;8.80;99.90
16327;DHT22;34812;49.846;9.610;2023-03-21T01:28:51;8.70;99.90
16327;DHT22;34812;49.846;9.610;2023-03-21T01:29:53;8.70;99.90
16327;DHT22;34812;49.846;9.610;2023-03-21T01:30:54;8.70;99.90
16327;DHT22;34812;49.846;9.610;2023-03-21T01:31:55;8.70;99.90
16327;DHT22;34812;49.846;9.610;2023-03-21T01:32:56;8.60;99.90
16327;DHT22;34812;49.846;9.610;2023-03-21T01:33:58;8.60;99.90
16327;DHT22;34812;49.846;9.610;2023-03-21T01:34:59;8.60;99.90
16327;DHT22;34812;49.846;9.610;2023-03-21T01:36:01;8.60;99.90
16327;DHT22;34812;49.846;9.610;2023-03-21T01:37:03;8.60;99.90
16327;DHT22;34812;49.846;9.610;2023-03-21T01:38:12;8.60;99.90
16327;DHT22;34812;49.846;9.610;2023-03-21T01:39:16;8.50;99.90
16327;DHT22;34812;49.846;9.610;2023-03-21T01:40:23;8.50;99.90
16327;DHT22;34812;49.846;9.610;2023-03-21T01:41:31;8.50;99.90
16327;DHT22;34812;49.846;9.610;2023-03-21T01:42:34;8.50;99.90
16327;DHT22;34812;49.846;9.610;2023-03-21T01:43:35;8.50;99.90
16327;DHT22;34812;49.846;9.610;2023-03-21T01:44:54;8.40;99.90
16327;DHT22;34812;49.846;9.610;2023-03-21T01:46:11;8.40;99.90
16327;DHT22;34812;49.846;9.610;2023-03-21T01:47:40;8.40;99.90
16327;DHT22;34812;49.846;9.610;2023-03-21T01:48:59;8.30;99.90
16327;DHT22;34812;49.846;9.610;2023-03-21T01:50:02;8.30;99.90
16327;DHT22;34812;49.846;9.610;2023-03-21T01:51:24;8.30;99.90
16327;DHT22;34812;49.846;9.610;2023-03-21T01:52:32;8.20;99.90
16327;DHT22;34812;49.846;9.610;2023-03-21T01:53:38;8.20;99.90
16327;DHT22;34812;49.846;9.610;2023-03-21T01:54:42;8.20;99.90
16327;DHT22;34812;49.846;9.610;2023-03-21T01:55:44;8.20;99.90
16327;DHT22;34812;49.846;9.610;2023-03-21T01:57:20;8.10;99.90
16327;DHT22;34812;49.846;9.610;2023-03-21T01:58:26;8.10;99.90
16327;DHT22;34812;49.846;9.610;2023-03-21T01:59:44;8.10;99.90
16327;DHT22;34812;49.846;9.610;2023-03-21T02:01:13;8.00;99.90
16327;DHT22;34812;49.846;9.610;2023-03-21T02:02:23;8.00;99.90
16327;DHT22;34812;49.846;9.610;2023-03-21T02:03:46;8.00;99.90
16327;DHT22;34812;49.846;9.610;2023-03-21T02:05:00;8.00;99.90
16327;DHT22;34812;49.846;9.610;2023-03-21T02:06:07;8.00;99.90
16327;DHT22;34812;49.846;9.610;2023-03-21T02:07:15;7.90;99.90
16327;DHT22;34812;49.846;9.610;2023-03-21T02:08:24;7.90;99.90
16327;DHT22;34812;49.846;9.610;2023-03-21T02:09:30;7.80;99.90
16327;DHT22;34812;49.846;9.610;2023-03-21T02:10:33;7.80;99.90
16327;DHT22;34812;49.846;9.610;2023-03-21T02:11:36;7.80;99.90
16327;DHT22;34812;49.846;9.610;2023-03-21T02:12:38;7.80;99.90
16327;DHT22;34812;49.846;9.610;2023-03-21T02:13:40;7.80;99.90
16327;DHT22;34812;49.846;9.610;2023-03-21T02:14:47;7.80;99.90
16327;DHT22;34812;49.846;9.610;2023-03-21T02:16:00;7.70;99.90
16327;DHT22;34812;49.846;9.610;2023-03-21T02:17:13;7.70;99.90
16327;DHT22;34812;49.846;9.610;2023-03-21T02:18:23;7.70;99.90
16327;DHT22;34812;49.846;9.610;2023-03-21T02:20:03;7.70;99.90
16327;DHT22;34812;49.846;9.610;2023-03-21T02:23:07;7.60;99.90
16327;DHT22;34812;49.846;9.610;2023-03-21T02:24:35;7.50;99.90
16327;DHT22;34812;49.846;9.610;2023-03-21T02:26:02;7.50;99.90
16327;DHT22;34812;49.846;9.610;2023-03-21T02:27:11;7.40;99.90
16327;DHT22;34812;49.846;9.610;2023-03-21T02:28:20;7.30;99.90
16327;DHT22;34812;49.846;9.610;2023-03-21T02:32:28;7.20;99.90
16327;DHT22;34812;49.846;9.610;2023-03-21T02:34:10;7.10;99.90
16327;DHT22;34812;49.846;9.610;2023-03-21T02:35:27;7.10;99.90
16327;DHT22;34812;49.846;9.610;2023-03-21T02:36:52;7.00;99.90
16327;DHT22;34812;49.846;9.610;2023-03-21T02:37:57;7.00;99.90
16327;DHT22;34812;49.846;9.610;2023-03-21T02:39:05;7.00;99.90
16327;DHT22;34812;49.846;9.610;2023-03-21T02:40:15;6.90;99.90
16327;DHT22;34812;49.846;9.610;2023-03-21T02:41:26;6.90;99.90
16327;DHT22;34812;49.846;9.610;2023-03-21T02:42:36;6.90;99.90
16327;DHT22;34812;49.846;9.610;2023-03-21T02:43:43;6.90;99.90
16327;DHT22;34812;49.846;9.610;2023-03-21T02:44:50;6.90;99.90
16327;DHT22;34812;49.846;9.610;2023-03-21T02:46:00;6.90;99.90
16327;DHT22;34812;49.846;9.610;2023-03-21T02:47:06;6.80;99.90
16327;DHT22;34812;49.846;9.610;2023-03-21T02:48:14;6.90;99.90
16327;DHT22;34812;49.846;9.610;2023-03-21T02:49:21;6.90;99.90
16327;DHT22;34812;49.846;9.610;2023-03-21T02:50:26;6.80;99.90
16327;DHT22;34812;49.846;9.610;2023-03-21T02:51:31;6.80;99.90
16327;DHT22;34812;49.846;9.610;2023-03-21T02:52:35;6.80;99.90
16327;DHT22;34812;49.846;9.610;2023-03-21T02:53:40;6.80;99.90
16327;DHT22;34812;49.846;9.610;2023-03-21T02:54:43;6.80;99.90
16327;DHT22;34812;49.846;9.610;2023-03-21T02:55:48;6.80;99.90
16327;DHT22;34812;49.846;9.610;2023-03-21T02:56:51;6.80;99.90
16327;DHT22;34812;49.846;9.610;2023-03-21T02:57:56;6.80;99.90
16327;DHT22;34812;49.846;9.610;2023-03-21T02:58:59;6.80;99.90
16327;DHT22;34812;49.846;9.610;2023-03-21T03:00:01;6.80;99.90
16327;DHT22;34812;49.846;9.610;2023-03-21T03:01:11;6.80;99.90
16327;DHT22;34812;49.846;9.610;2023-03-21T03:02:21;6.80;99.90
16327;DHT22;34812;49.846;9.610;2023-03-21T03:03:23;6.80;99.90
16327;DHT22;34812;49.846;9.610;2023-03-21T03:04:26;6.80;99.90
16327;DHT22;34812;49.846;9.610;2023-03-21T03:05:30;6.80;99.90
16327;DHT22;34812;49.846;9.610;2023-03-21T03:06:39;6.80;99.90
16327;DHT22;34812;49.846;9.610;2023-03-21T03:07:59;6.80;99.90
16327;DHT22;34812;49.846;9.610;2023-03-21T03:09:17;6.90;99.90
16327;DHT22;34812;49.846;9.610;2023-03-21T03:10:30;6.90;99.90
16327;DHT22;34812;49.846;9.610;2023-03-21T03:11:36;6.90;99.90
16327;DHT22;34812;49.846;9.610;2023-03-21T03:12:44;6.90;99.90
16327;DHT22;34812;49.846;9.610;2023-03-21T03:13:55;6.90;99.90
16327;DHT22;34812;49.846;9.610;2023-03-21T03:15:11;7.00;99.90
16327;DHT22;34812;49.846;9.610;2023-03-21T03:16:25;7.00;99.90
16327;DHT22;34812;49.846;9.610;2023-03-21T03:17:38;7.00;99.90
16327;DHT22;34812;49.846;9.610;2023-03-21T03:18:48;7.00;99.90
16327;DHT22;34812;49.846;9.610;2023-03-21T03:20:02;7.00;99.90
16327;DHT22;34812;49.846;9.610;2023-03-21T03:21:12;7.00;99.90
16327;DHT22;34812;49.846;9.610;2023-03-21T03:22:19;6.90;99.90
16327;DHT22;34812;49.846;9.610;2023-03-21T03:23:28;6.90;99.90
16327;DHT22;34812;49.846;9.610;2023-03-21T03:24:37;6.90;99.90
16327;DHT22;34812;49.846;9.610;2023-03-21T03:25:44;6.90;99.90
16327;DHT22;34812;49.846;9.610;2023-03-21T03:26:52;6.80;99.90
16327;DHT22;34812;49.846;9.610;2023-03-21T03:27:59;6.80;99.90
16327;DHT22;34812;49.846;9.610;2023-03-21T03:29:03;6.80;99.90
16327;DHT22;34812;49.846;9.610;2023-03-21T03:30:10;6.80;99.90
16327;DHT22;34812;49.846;9.610;2023-03-21T03:31:14;6.80;99.90
16327;DHT22;34812;49.846;9.610;2023-03-21T03:32:29;6.80;99.90
16327;DHT22;34812;49.846;9.610;2023-03-21T03:33:32;6.80;99.90
16327;DHT22;34812;49.846;9.610;2023-03-21T03:34:40;6.80;99.90
16327;DHT22;34812;49.846;9.610;2023-03-21T03:35:42;6.80;99.90
16327;DHT22;34812;49.846;9.610;2023-03-21T03:36:46;6.70;99.90
16327;DHT22;34812;49.846;9.610;2023-03-21T03:37:54;6.70;99.90
16327;DHT22;34812;49.846;9.610;2023-03-21T03:38:59;6.70;99.90
16327;DHT22;34812;49.846;9.610;2023-03-21T03:40:04;6.70;99.90
16327;DHT22;34812;49.846;9.610;2023-03-21T03:41:10;6.70;99.90
16327;DHT22;34812;49.846;9.610;2023-03-21T03:42:23;6.70;99.90
16327;DHT22;34812;49.846;9.610;2023-03-21T03:43:34;6.70;99.90
16327;DHT22;34812;49.846;9.610;2023-03-21T03:44:36;6.70;99.90
16327;DHT22;34812;49.846;9.610;2023-03-21T03:45:45;6.70;99.90
16327;DHT22;34812;49.846;9.610;2023-03-21T03:46:52;6.70;99.90
16327;DHT22;34812;49.846;9.610;2023-03-21T03:48:03;6.70;99.90
16327;DHT22;34812;49.846;9.610;2023-03-21T03:49:12;6.70;99.90
16327;DHT22;34812;49.846;9.610;2023-03-21T03:50:21;6.70;99.90
16327;DHT22;34812;49.846;9.610;2023-03-21T03:51:27;6.70;99.90
16327;DHT22;34812;49.846;9.610;2023-03-21T03:53:05;6.70;99.90
16327;DHT22;34812;49.846;9.610;2023-03-21T03:54:11;6.70;99.90
16327;DHT22;34812;49.846;9.610;2023-03-21T03:55:15;6.70;99.90
16327;DHT22;34812;49.846;9.610;2023-03-21T03:56:20;6.70;99.90
16327;DHT22;34812;49.846;9.610;2023-03-21T03:57:24;6.70;99.90
16327;DHT22;34812;49.846;9.610;2023-03-21T03:58:28;6.70;99.90
16327;DHT22;34812;49.846;9.610;2023-03-21T03:59:33;6.70;99.90
16327;DHT22;34812;49.846;9.610;2023-03-21T04:00:54;6.70;99.90
16327;DHT22;34812;49.846;9.610;2023-03-21T04:01:55;6.80;99.90
16327;DHT22;34812;49.846;9.610;2023-03-21T04:02:57;6.80;99.90
16327;DHT22;34812;49.846;9.610;2023-03-21T04:03:59;6.80;99.90
16327;DHT22;34812;49.846;9.610;2023-03-21T04:05:01;6.80;99.90
16327;DHT22;34812;49.846;9.610;2023-03-21T04:06:04;6.80;99.90
16327;DHT22;34812;49.846;9.610;2023-03-21T04:07:06;6.80;99.90
16327;DHT22;34812;49.846;9.610;2023-03-21T04:08:07;6.70;99.90
16327;DHT22;34812;49.846;9.610;2023-03-21T04:09:16;6.70;99.90
16327;DHT22;34812;49.846;9.610;2023-03-21T04:10:18;6.70;99.90
16327;DHT22;34812;49.846;9.610;2023-03-21T04:11:20;6.70;99.90
16327;DHT22;34812;49.846;9.610;2023-03-21T04:12:25;6.70;99.90
16327;DHT22;34812;49.846;9.610;2023-03-21T04:13:47;6.70;99.90
16327;DHT22;34812;49.846;9.610;2023-03-21T04:14:55;6.70;99.90
16327;DHT22;34812;49.846;9.610;2023-03-21T04:15:56;6.70;99.90
16327;DHT22;34812;49.846;9.610;2023-03-21T04:16:57;6.70;99.90
16327;DHT22;34812;49.846;9.610;2023-03-21T04:17:58;6.70;99.90
16327;DHT22;34812;49.846;9.610;2023-03-21T04:19:00;6.70;99.90
16327;DHT22;34812;49.846;9.610;2023-03-21T04:20:01;6.60;99.90
16327;DHT22;34812;49.846;9.610;2023-03-21T04:21:08;6.60;99.90
16327;DHT22;34812;49.846;9.610;2023-03-21T04:22:09;6.60;99.90
16327;DHT22;34812;49.846;9.610;2023-03-21T04:23:13;6.60;99.90
16327;DHT22;34812;49.846;9.610;2023-03-21T04:24:20;6.60;99.90
16327;DHT22;34812;49.846;9.610;2023-03-21T04:25:23;6.60;99.90
16327;DHT22;34812;49.846;9.610;2023-03-21T04:26:24;6.60;99.90
16327;DHT22;34812;49.846;9.610;2023-03-21T04:27:52;6.60;99.90
16327;DHT22;34812;49.846;9.610;2023-03-21T04:29:22;6.50;99.90
16327;DHT22;34812;49.846;9.610;2023-03-21T04:30:33;6.50;99.90
16327;DHT22;34812;49.846;9.610;2023-03-21T04:31:44;6.50;99.90
16327;DHT22;34812;49.846;9.610;2023-03-21T04:32:49;6.50;99.90
16327;DHT22;34812;49.846;9.610;2023-03-21T04:33:54;6.50;99.90
16327;DHT22;34812;49.846;9.610;2023-03-21T04:34:56;6.50;99.90
16327;DHT22;34812;49.846;9.610;2023-03-21T04:35:57;6.40;99.90
16327;DHT22;34812;49.846;9.610;2023-03-21T04:37:02;6.40;99.90
16327;DHT22;34812;49.846;9.610;2023-03-21T04:38:10;6.40;99.90
16327;DHT22;34812;49.846;9.610;2023-03-21T04:39:12;6.30;99.90
16327;DHT22;34812;49.846;9.610;2023-03-21T04:40:17;6.30;99.90
16327;DHT22;34812;49.846;9.610;2023-03-21T04:41:19;6.20;99.90
16327;DHT22;34812;49.846;9.610;2023-03-21T04:42:22;6.20;99.90
16327;DHT22;34812;49.846;9.610;2023-03-21T04:43:23;6.10;99.90
16327;DHT22;34812;49.846;9.610;2023-03-21T04:44:25;6.10;99.90
16327;DHT22;34812;49.846;9.610;2023-03-21T04:45:26;6.00;99.90
16327;DHT22;34812;49.846;9.610;2023-03-21T04:46:27;6.00;99.90
16327;DHT22;34812;49.846;9.610;2023-03-21T04:47:28;5.90;99.90
16327;DHT22;34812;49.846;9.610;2023-03-21T04:48:30;5.90;99.90
16327;DHT22;34812;49.846;9.610;2023-03-21T04:49:33;5.90;99.90
16327;DHT22;34812;49.846;9.610;2023-03-21T04:50:35;5.80;99.90
16327;DHT22;34812;49.846;9.610;2023-03-21T04:51:36;5.80;99.90
16327;DHT22;34812;49.846;9.610;2023-03-21T04:52:42;5.80;99.90
16327;DHT22;34812;49.846;9.610;2023-03-21T04:53:43;5.70;99.90
16327;DHT22;34812;49.846;9.610;2023-03-21T04:54:48;5.70;99.90
16327;DHT22;34812;49.846;9.610;2023-03-21T04:55:50;5.80;99.90
16327;DHT22;34812;49.846;9.610;2023-03-21T04:56:52;5.80;99.90
16327;DHT22;34812;49.846;9.610;2023-03-21T04:57:53;5.80;99.90
16327;DHT22;34812;49.846;9.610;2023-03-21T04:58:55;5.80;99.90
16327;DHT22;34812;49.846;9.610;2023-03-21T04:59:56;5.80;99.90
16327;DHT22;34812;49.846;9.610;2023-03-21T05:00:58;5.80;99.90
16327;DHT22;34812;49.846;9.610;2023-03-21T05:02:02;5.70;99.90
16327;DHT22;34812;49.846;9.610;2023-03-21T05:03:05;5.70;99.90
16327;DHT22;34812;49.846;9.610;2023-03-21T05:04:08;5.70;99.90
16327;DHT22;34812;49.846;9.610;2023-03-21T05:05:11;5.70;99.90
16327;DHT22;34812;49.846;9.610;2023-03-21T05:06:13;5.70;99.90
16327;DHT22;34812;49.846;9.610;2023-03-21T05:07:16;5.60;99.90
16327;DHT22;34812;49.846;9.610;2023-03-21T05:08:17;5.60;99.90
16327;DHT22;34812;49.846;9.610;2023-03-21T05:09:19;5.60;99.90
16327;DHT22;34812;49.846;9.610;2023-03-21T05:10:22;5.50;99.90
16327;DHT22;34812;49.846;9.610;2023-03-21T05:11:25;5.50;99.90
16327;DHT22;34812;49.846;9.610;2023-03-21T05:12:26;5.50;99.90
16327;DHT22;34812;49.846;9.610;2023-03-21T05:13:27;5.50;99.90
16327;DHT22;34812;49.846;9.610;2023-03-21T05:14:28;5.50;99.90
16327;DHT22;34812;49.846;9.610;2023-03-21T05:15:32;5.40;99.90
16327;DHT22;34812;49.846;9.610;2023-03-21T05:16:33;5.40;99.90
16327;DHT22;34812;49.846;9.610;2023-03-21T05:17:35;5.40;99.90
16327;DHT22;34812;49.846;9.610;2023-03-21T05:18:36;5.40;99.90
16327;DHT22;34812;49.846;9.610;2023-03-21T05:19:45;5.40;99.90
16327;DHT22;34812;49.846;9.610;2023-03-21T05:20:46;5.40;99.90
16327;DHT22;34812;49.846;9.610;2023-03-21T05:21:53;5.40;99.90
16327;DHT22;34812;49.846;9.610;2023-03-21T05:22:59;5.40;99.90
16327;DHT22;34812;49.846;9.610;2023-03-21T05:24:00;5.50;99.90
16327;DHT22;34812;49.846;9.610;2023-03-21T05:25:05;5.50;99.90
16327;DHT22;34812;49.846;9.610;2023-03-21T05:26:37;5.40;99.90
16327;DHT22;34812;49.846;9.610;2023-03-21T05:27:46;5.40;99.90
16327;DHT22;34812;49.846;9.610;2023-03-21T05:28:55;5.40;99.90
16327;DHT22;34812;49.846;9.610;2023-03-21T05:29:58;5.40;99.90
16327;DHT22;34812;49.846;9.610;2023-03-21T05:30:59;5.40;99.90
16327;DHT22;34812;49.846;9.610;2023-03-21T05:32:00;5.40;99.90
16327;DHT22;34812;49.846;9.610;2023-03-21T05:33:02;5.40;99.90
16327;DHT22;34812;49.846;9.610;2023-03-21T05:34:04;5.40;99.90
16327;DHT22;34812;49.846;9.610;2023-03-21T05:35:06;5.40;99.90
16327;DHT22;34812;49.846;9.610;2023-03-21T05:36:08;5.40;99.90
16327;DHT22;34812;49.846;9.610;2023-03-21T05:37:09;5.40;99.90
16327;DHT22;34812;49.846;9.610;2023-03-21T05:38:21;5.40;99.90
16327;DHT22;34812;49.846;9.610;2023-03-21T05:39:25;5.30;99.90
16327;DHT22;34812;49.846;9.610;2023-03-21T05:40:45;5.30;99.90
16327;DHT22;34812;49.846;9.610;2023-03-21T05:41:48;5.30;99.90
16327;DHT22;34812;49.846;9.610;2023-03-21T05:42:49;5.30;99.90
16327;DHT22;34812;49.846;9.610;2023-03-21T05:43:55;5.30;99.90
16327;DHT22;34812;49.846;9.610;2023-03-21T05:44:56;5.20;99.90
16327;DHT22;34812;49.846;9.610;2023-03-21T05:46:04;5.20;99.90
16327;DHT22;34812;49.846;9.610;2023-03-21T05:47:05;5.20;99.90
16327;DHT22;34812;49.846;9.610;2023-03-21T05:48:16;5.20;99.90
16327;DHT22;34812;49.846;9.610;2023-03-21T05:49:35;5.20;99.90
16327;DHT22;34812;49.846;9.610;2023-03-21T05:50:38;5.20;99.90
16327;DHT22;34812;49.846;9.610;2023-03-21T05:51:46;5.20;99.90
16327;DHT22;34812;49.846;9.610;2023-03-21T05:52:47;5.20;99.90
16327;DHT22;34812;49.846;9.610;2023-03-21T05:53:49;5.20;99.90
16327;DHT22;34812;49.846;9.610;2023-03-21T05:54:51;5.20;99.90
16327;DHT22;34812;49.846;9.610;2023-03-21T05:55:56;5.20;99.90
16327;DHT22;34812;49.846;9.610;2023-03-21T05:57:15;5.20;99.90
16327;DHT22;34812;49.846;9.610;2023-03-21T05:58:31;5.30;99.90
16327;DHT22;34812;49.846;9.610;2023-03-21T05:59:33;5.30;99.90
16327;DHT22;34812;49.846;9.610;2023-03-21T06:00:35;5.30;99.90
16327;DHT22;34812;49.846;9.610;2023-03-21T06:01:52;5.30;99.90
16327;DHT22;34812;49.846;9.610;2023-03-21T06:02:54;5.30;99.90
16327;DHT22;34812;49.846;9.610;2023-03-21T06:04:14;5.30;99.90
16327;DHT22;34812;49.846;9.610;2023-03-21T06:05:17;5.30;99.90
16327;DHT22;34812;49.846;9.610;2023-03-21T06:06:18;5.30;99.90
16327;DHT22;34812;49.846;9.610;2023-03-21T06:07:30;5.40;99.90
16327;DHT22;34812;49.846;9.610;2023-03-21T06:08:31;5.40;99.90
16327;DHT22;34812;49.846;9.610;2023-03-21T06:09:34;5.40;99.90
16327;DHT22;34812;49.846;9.610;2023-03-21T06:10:37;5.50;99.90
16327;DHT22;34812;49.846;9.610;2023-03-21T06:11:40;5.40;99.90
16327;DHT22;34812;49.846;9.610;2023-03-21T06:12:53;5.50;99.90
16327;DHT22;34812;49.846;9.610;2023-03-21T06:14:01;5.50;99.90
16327;DHT22;34812;49.846;9.610;2023-03-21T06:15:03;5.50;99.90
16327;DHT22;34812;49.846;9.610;2023-03-21T06:16:11;5.40;99.90
16327;DHT22;34812;49.846;9.610;2023-03-21T06:17:12;5.40;99.90
16327;DHT22;34812;49.846;9.610;2023-03-21T06:18:20;5.40;99.90
16327;DHT22;34812;49.846;9.610;2023-03-21T06:19:28;5.50;99.90
16327;DHT22;34812;49.846;9.610;2023-03-21T06:20:37;5.50;99.90
16327;DHT22;34812;49.846;9.610;2023-03-21T06:21:43;5.60;99.90
16327;DHT22;34812;49.846;9.610;2023-03-21T06:22:45;5.60;99.90
16327;DHT22;34812;49.846;9.610;2023-03-21T06:23:46;5.60;99.90
16327;DHT22;34812;49.846;9.610;2023-03-21T06:24:51;5.60;99.90
16327;DHT22;34812;49.846;9.610;2023-03-21T06:25:52;5.70;99.90
16327;DHT22;34812;49.846;9.610;2023-03-21T06:26:54;5.70;99.90
16327;DHT22;34812;49.846;9.610;2023-03-21T06:27:57;5.70;99.90
16327;DHT22;34812;49.846;9.610;2023-03-21T06:29:00;5.80;99.90
16327;DHT22;34812;49.846;9.610;2023-03-21T06:30:02;5.80;99.90
16327;DHT22;34812;49.846;9.610;2023-03-21T06:31:10;5.80;99.90
16327;DHT22;34812;49.846;9.610;2023-03-21T06:32:11;5.90;99.90
16327;DHT22;34812;49.846;9.610;2023-03-21T06:33:13;5.90;99.90
16327;DHT22;34812;49.846;9.610;2023-03-21T06:34:14;5.90;99.90
16327;DHT22;34812;49.846;9.610;2023-03-21T06:35:16;5.90;99.90
16327;DHT22;34812;49.846;9.610;2023-03-21T06:36:17;6.00;99.90
16327;DHT22;34812;49.846;9.610;2023-03-21T06:37:19;6.00;99.90
16327;DHT22;34812;49.846;9.610;2023-03-21T06:38:20;6.00;99.90
16327;DHT22;34812;49.846;9.610;2023-03-21T06:39:22;6.10;99.90
16327;DHT22;34812;49.846;9.610;2023-03-21T06:40:24;6.10;99.90
16327;DHT22;34812;49.846;9.610;2023-03-21T06:41:26;6.20;99.90
16327;DHT22;34812;49.846;9.610;2023-03-21T06:42:36;6.20;99.90
16327;DHT22;34812;49.846;9.610;2023-03-21T06:43:44;6.20;99.90
16327;DHT22;34812;49.846;9.610;2023-03-21T06:44:48;6.30;99.90
16327;DHT22;34812;49.846;9.610;2023-03-21T06:45:50;6.30;99.90
16327;DHT22;34812;49.846;9.610;2023-03-21T06:46:52;6.30;99.90
16327;DHT22;34812;49.846;9.610;2023-03-21T06:47:53;6.40;99.90
16327;DHT22;34812;49.846;9.610;2023-03-21T06:49:07;6.40;99.90
16327;DHT22;34812;49.846;9.610;2023-03-21T06:50:09;6.40;99.90
16327;DHT22;34812;49.846;9.610;2023-03-21T06:51:15;6.50;99.90
16327;DHT22;34812;49.846;9.610;2023-03-21T06:52:29;6.60;99.90
16327;DHT22;34812;49.846;9.610;2023-03-21T06:53:32;6.70;99.90
16327;DHT22;34812;49.846;9.610;2023-03-21T06:54:52;6.90;99.90
16327;DHT22;34812;49.846;9.610;2023-03-21T06:55:56;7.00;99.90
16327;DHT22;34812;49.846;9.610;2023-03-21T06:56:56;7.10;99.90
16327;DHT22;34812;49.846;9.610;2023-03-21T06:58:03;7.20;99.90
16327;DHT22;34812;49.846;9.610;2023-03-21T06:59:05;7.40;99.90
16327;DHT22;34812;49.846;9.610;2023-03-21T07:00:26;7.50;99.90
16327;DHT22;34812;49.846;9.610;2023-03-21T07:01:27;7.60;99.90
16327;DHT22;34812;49.846;9.610;2023-03-21T07:02:37;7.70;99.90
16327;DHT22;34812;49.846;9.610;2023-03-21T07:03:48;7.80;99.90
16327;DHT22;34812;49.846;9.610;2023-03-21T07:04:53;7.90;99.90
16327;DHT22;34812;49.846;9.610;2023-03-21T07:05:57;8.00;99.90
16327;DHT22;34812;49.846;9.610;2023-03-21T07:06:59;8.00;99.90